Time;durP1;ratioP1;P1;durP2;ratioP2;P2;SDS_P1;SDS_P2;PMS_P1;PMS_P2;Temp;Humidity;BMP_temperature;BMP_pressure;BME280_temperature;BME280_humidity;BME280_pressure;Samples;Min_cycle;Max_cycle;Signal;HPM_P1;HPM_P2
2023/10/26 00:01:56;;;;;;;18.27;12.40;;;10.10;99.90;;;;;;5013686;28;20042;-55
2023/10/26 00:04:23;;;;;;;16.65;12.32;;;10.10;99.90;;;;;;5013720;28;20096;-56
2023/10/26 00:06:50;;;;;;;14.52;11.65;;;10.00;99.90;;;;;;5013488;28;20050;-57
2023/10/26 00:09:17;;;;;;;13.77;11.65;;;10.00;99.90;;;;;;5013970;28;20076;-54
2023/10/26 00:11:44;;;;;;;15.60;11.95;;;10.10;99.90;;;;;;5013835;28;20546;-55
2023/10/26 00:14:11;;;;;;;15.07;11.63;;;10.10;99.90;;;;;;5013965;28;20045;-55
2023/10/26 00:16:38;;;;;;;18.25;11.52;;;10.10;99.90;;;;;;5013917;28;20053;-57
2023/10/26 00:19:04;;;;;;;18.77;11.85;;;10.10;99.90;;;;;;5013689;28;20074;-55
2023/10/26 00:21:31;;;;;;;14.55;11.00;;;10.10;99.90;;;;;;5013779;28;20046;-56
2023/10/26 00:23:58;;;;;;;14.48;11.75;;;10.10;99.90;;;;;;5013635;28;20033;-54
2023/10/26 00:26:25;;;;;;;16.75;12.13;;;10.10;99.90;;;;;;5013537;28;20038;-54
2023/10/26 00:28:53;;;;;;;15.27;11.40;;;10.10;99.90;;;;;;5013253;28;20062;-55
2023/10/26 00:31:19;;;;;;;19.17;11.00;;;10.20;99.90;;;;;;4996328;28;20400;-56
2023/10/26 00:33:46;;;;;;;14.30;11.35;;;10.20;99.90;;;;;;5013359;28;20130;-54
2023/10/26 00:36:13;;;;;;;15.63;11.32;;;10.20;99.90;;;;;;5013647;28;20054;-56
2023/10/26 00:38:40;;;;;;;14.15;11.10;;;10.20;99.90;;;;;;5013679;28;20426;-54
2023/10/26 00:41:07;;;;;;;16.08;11.63;;;10.20;99.90;;;;;;5016961;28;20103;-55
2023/10/26 00:43:34;;;;;;;15.35;11.43;;;10.20;99.90;;;;;;5017210;28;20048;-53
2023/10/26 00:46:02;;;;;;;15.63;11.10;;;10.20;99.90;;;;;;5016918;28;20038;-56
2023/10/26 00:48:29;;;;;;;17.83;12.00;;;10.20;99.90;;;;;;5016671;28;20038;-54
2023/10/26 00:50:56;;;;;;;13.32;10.95;;;10.20;99.90;;;;;;4999796;28;20096;-54
2023/10/26 00:53:23;;;;;;;18.25;11.77;;;10.20;99.90;;;;;;4999252;28;20443;-55
2023/10/26 00:55:50;;;;;;;18.95;12.32;;;10.20;99.90;;;;;;5016572;28;20514;-55
2023/10/26 00:58:17;;;;;;;18.17;11.48;;;10.20;99.90;;;;;;5016713;28;20077;-51
2023/10/26 01:00:44;;;;;;;13.35;10.95;;;10.20;99.90;;;;;;5017046;28;20045;-55
2023/10/26 01:03:10;;;;;;;14.38;10.68;;;10.20;99.90;;;;;;4999005;28;20483;-54
2023/10/26 01:05:37;;;;;;;15.13;11.32;;;10.20;99.90;;;;;;4999392;28;20383;-55
2023/10/26 01:08:04;;;;;;;15.95;11.70;;;10.20;99.90;;;;;;4998655;28;20045;-55
2023/10/26 01:10:32;;;;;;;16.65;11.32;;;10.20;99.90;;;;;;5016607;28;20034;-54
2023/10/26 01:12:59;;;;;;;17.33;10.82;;;10.20;99.90;;;;;;4998735;28;20044;-56
2023/10/26 01:15:26;;;;;;;18.17;11.43;;;10.20;99.90;;;;;;4998647;28;20050;-55
2023/10/26 01:17:53;;;;;;;14.35;10.43;;;10.20;99.90;;;;;;5016548;28;20102;-56
2023/10/26 01:20:20;;;;;;;15.40;10.55;;;10.20;99.90;;;;;;5016232;28;20080;-52
2023/10/26 01:22:47;;;;;;;17.80;10.90;;;10.30;99.90;;;;;;4999082;28;20049;-53
2023/10/26 01:25:14;;;;;;;15.35;10.82;;;10.30;99.90;;;;;;5016246;28;20038;-56
2023/10/26 01:27:41;;;;;;;16.58;11.35;;;10.30;99.90;;;;;;5015944;28;20450;-55
2023/10/26 01:30:08;;;;;;;13.13;10.35;;;10.30;99.90;;;;;;5016255;28;20046;-56
2023/10/26 01:32:35;;;;;;;13.93;10.55;;;10.30;99.90;;;;;;5015984;28;20124;-51
2023/10/26 01:35:02;;;;;;;14.35;9.90;;;10.30;99.90;;;;;;4998243;28;20078;-53
2023/10/26 01:37:29;;;;;;;15.07;10.20;;;10.40;99.90;;;;;;5016040;28;20057;-55
2023/10/26 01:39:56;;;;;;;12.43;9.63;;;10.40;99.90;;;;;;4998257;28;20092;-54
2023/10/26 01:42:23;;;;;;;13.45;9.80;;;10.40;99.90;;;;;;5015987;28;20471;-53
2023/10/26 01:44:50;;;;;;;13.10;9.65;;;10.40;99.90;;;;;;4998338;28;20072;-54
2023/10/26 01:47:17;;;;;;;12.30;9.45;;;10.40;99.90;;;;;;4998778;28;20045;-56
2023/10/26 01:49:44;;;;;;;12.35;9.77;;;10.40;99.90;;;;;;5015863;28;20454;-54
2023/10/26 01:52:11;;;;;;;14.50;10.13;;;10.40;99.90;;;;;;5015023;28;20076;-50
2023/10/26 01:54:38;;;;;;;13.15;10.27;;;10.40;99.90;;;;;;4998446;28;20046;-53
2023/10/26 01:57:04;;;;;;;13.32;9.27;;;10.50;99.90;;;;;;4998294;28;20052;-53
2023/10/26 01:59:31;;;;;;;14.60;10.45;;;10.50;99.90;;;;;;4998223;28;20054;-54
2023/10/26 02:01:58;;;;;;;17.15;10.40;;;10.50;99.90;;;;;;4997797;28;20046;-51
2023/10/26 02:04:25;;;;;;;14.77;10.93;;;10.50;99.90;;;;;;4998168;28;20054;-54
2023/10/26 02:06:52;;;;;;;12.43;9.40;;;10.50;99.90;;;;;;4997792;28;20499;-55
2023/10/26 02:09:19;;;;;;;13.40;9.63;;;10.50;99.90;;;;;;5015750;28;20044;-55
2023/10/26 02:11:46;;;;;;;13.75;9.57;;;10.50;99.90;;;;;;4997999;28;20376;-53
2023/10/26 02:14:13;;;;;;;13.48;10.02;;;10.50;99.90;;;;;;5015646;28;20061;-56
2023/10/26 02:16:39;;;;;;;15.10;10.15;;;10.60;99.90;;;;;;4997335;28;20057;-54
2023/10/26 02:19:06;;;;;;;19.02;10.05;;;10.60;99.90;;;;;;4997756;28;20046;-53
2023/10/26 02:21:35;;;;;;;13.45;9.95;;;10.60;99.90;;;;;;5015085;28;20046;-55
2023/10/26 02:24:02;;;;;;;15.00;9.95;;;10.60;99.90;;;;;;5015254;28;20045;-54
2023/10/26 02:26:29;;;;;;;18.80;10.20;;;10.60;99.90;;;;;;5015595;28;20061;-55
2023/10/26 02:28:55;;;;;;;15.10;9.27;;;10.60;99.90;;;;;;5015601;28;20360;-53
2023/10/26 02:31:22;;;;;;;13.82;9.65;;;10.50;99.90;;;;;;4997838;28;20037;-56
2023/10/26 02:33:49;;;;;;;14.43;9.38;;;10.60;99.90;;;;;;5014644;28;20046;-54
2023/10/26 02:36:16;;;;;;;15.65;9.48;;;10.60;99.90;;;;;;5014839;28;20056;-52
2023/10/26 02:38:43;;;;;;;13.10;9.52;;;10.60;99.90;;;;;;5015186;28;20601;-54
2023/10/26 02:41:10;;;;;;;11.73;9.32;;;10.60;99.90;;;;;;5014695;28;20390;-56
2023/10/26 02:43:36;;;;;;;11.45;8.85;;;10.60;99.90;;;;;;5014999;28;20100;-55
2023/10/26 02:46:06;;;;;;;9.73;8.40;;;10.60;99.90;;;;;;5014471;28;20041;-56
2023/10/26 02:48:33;;;;;;;11.15;8.52;;;10.50;99.90;;;;;;5014637;28;20034;-55
2023/10/26 02:51:01;;;;;;;12.55;8.32;;;10.50;99.90;;;;;;5014596;28;20038;-56
2023/10/26 02:53:28;;;;;;;11.50;8.00;;;10.50;99.90;;;;;;5015112;28;20125;-55
2023/10/26 02:55:54;;;;;;;15.32;8.48;;;10.60;99.90;;;;;;5014574;28;20413;-56
2023/10/26 02:58:21;;;;;;;11.80;8.38;;;10.60;99.90;;;;;;4996804;28;20046;-55
2023/10/26 03:00:48;;;;;;;13.88;7.90;;;10.60;99.90;;;;;;5014442;28;20046;-55
2023/10/26 03:03:15;;;;;;;13.27;7.70;;;10.60;99.90;;;;;;5013154;28;20103;-56
2023/10/26 03:05:43;;;;;;;11.90;8.95;;;10.60;99.90;;;;;;5014537;28;20052;-52
2023/10/26 03:08:11;;;;;;;9.90;7.25;;;10.60;99.90;;;;;;5014224;28;20050;-52
2023/10/26 03:10:38;;;;;;;9.80;7.72;;;10.70;99.90;;;;;;5014194;28;20046;-56
2023/10/26 03:13:06;;;;;;;12.02;8.43;;;10.70;99.90;;;;;;4996994;28;20049;-55
2023/10/26 03:15:33;;;;;;;9.50;8.05;;;10.70;99.90;;;;;;5014110;28;20446;-55
2023/10/26 03:17:59;;;;;;;8.80;6.72;;;10.70;99.90;;;;;;5014115;28;20041;-52
2023/10/26 03:20:26;;;;;;;10.05;7.55;;;10.70;99.90;;;;;;4996415;28;20046;-51
2023/10/26 03:22:53;;;;;;;10.05;7.28;;;10.70;99.90;;;;;;5013968;28;20537;-53
2023/10/26 03:25:20;;;;;;;8.48;7.28;;;10.70;99.90;;;;;;5013831;28;20042;-55
2023/10/26 03:27:47;;;;;;;8.50;6.78;;;10.70;99.90;;;;;;4996109;28;20084;-56
2023/10/26 03:30:15;;;;;;;9.50;7.30;;;10.80;99.90;;;;;;5013943;28;20487;-52
2023/10/26 03:32:43;;;;;;;12.02;6.80;;;10.80;99.90;;;;;;5014320;28;20046;-55
2023/10/26 03:35:09;;;;;;;8.82;5.95;;;10.80;99.90;;;;;;4996541;28;20132;-62
2023/10/26 03:37:36;;;;;;;8.52;5.10;;;10.80;99.90;;;;;;5013470;28;20421;-63
2023/10/26 03:40:03;;;;;;;8.05;4.50;;;10.90;99.90;;;;;;4996647;28;20426;-63
2023/10/26 03:42:30;;;;;;;6.65;4.22;;;10.90;99.90;;;;;;5013831;28;20041;-63
2023/10/26 03:44:56;;;;;;;6.50;3.90;;;10.90;99.90;;;;;;4996548;28;20478;-63
2023/10/26 03:47:23;;;;;;;6.93;3.70;;;10.90;99.90;;;;;;4995956;28;20057;-63
2023/10/26 03:49:52;;;;;;;4.63;3.80;;;11.00;99.90;;;;;;4996826;28;20497;-62
2023/10/26 03:52:19;;;;;;;7.30;3.55;;;11.00;99.90;;;;;;5013450;28;20410;-63
2023/10/26 03:54:46;;;;;;;7.13;3.70;;;11.10;99.90;;;;;;5013290;28;20046;-63
2023/10/26 03:57:13;;;;;;;5.85;3.50;;;11.10;99.90;;;;;;5013761;28;20069;-63
2023/10/26 03:59:40;;;;;;;7.40;4.05;;;11.10;99.90;;;;;;4996297;28;20125;-63
2023/10/26 04:02:07;;;;;;;6.75;3.60;;;11.10;99.90;;;;;;4995805;28;20054;-63
2023/10/26 04:04:33;;;;;;;7.72;3.90;;;11.10;99.90;;;;;;5013600;28;20053;-63
2023/10/26 04:07:00;;;;;;;6.53;3.83;;;11.10;99.90;;;;;;5013577;28;20040;-62
2023/10/26 04:09:27;;;;;;;5.10;4.05;;;11.20;99.90;;;;;;5013876;28;20471;-63
2023/10/26 04:11:54;;;;;;;5.90;3.90;;;11.20;99.90;;;;;;5013772;28;20073;-63
2023/10/26 04:14:21;;;;;;;7.25;4.28;;;11.20;99.90;;;;;;5014977;28;20125;-63
2023/10/26 04:16:49;;;;;;;6.30;4.03;;;11.20;99.90;;;;;;5017524;28;20045;-63
2023/10/26 04:19:16;;;;;;;6.60;3.90;;;11.20;99.90;;;;;;5017734;28;20057;-63
2023/10/26 04:21:43;;;;;;;7.78;3.97;;;11.20;99.90;;;;;;5017950;28;20038;-63
2023/10/26 04:24:10;;;;;;;4.40;3.72;;;11.20;99.90;;;;;;5017485;28;20498;-63
2023/10/26 04:26:36;;;;;;;6.28;3.90;;;11.20;99.90;;;;;;5017544;28;20483;-62
2023/10/26 04:29:05;;;;;;;6.10;3.92;;;11.20;99.90;;;;;;5017195;28;20053;-63
2023/10/26 04:31:33;;;;;;;5.50;3.92;;;11.20;99.90;;;;;;5017422;28;20121;-63
2023/10/26 04:34:00;;;;;;;6.00;3.70;;;11.20;99.90;;;;;;5017515;28;20108;-63
2023/10/26 04:36:27;;;;;;;5.78;3.85;;;11.20;99.90;;;;;;4999211;28;20046;-63
2023/10/26 04:38:54;;;;;;;6.93;3.53;;;11.20;99.90;;;;;;5017153;28;20042;-63
2023/10/26 04:41:21;;;;;;;4.78;3.20;;;11.20;99.90;;;;;;5017464;28;20073;-63
2023/10/26 04:43:48;;;;;;;5.07;3.22;;;11.20;99.90;;;;;;5017193;28;20050;-63
2023/10/26 04:46:14;;;;;;;5.22;3.20;;;11.30;99.90;;;;;;5017315;28;20383;-63
2023/10/26 04:48:41;;;;;;;5.30;3.00;;;11.30;99.90;;;;;;5032264;28;20038;-63
2023/10/26 04:51:08;;;;;;;5.90;2.58;;;11.20;99.90;;;;;;5017459;28;20092;-63
2023/10/26 04:53:35;;;;;;;4.35;2.72;;;11.20;99.90;;;;;;5016786;28;20061;-63
2023/10/26 04:56:02;;;;;;;4.28;2.55;;;11.30;99.90;;;;;;5016781;28;20041;-63
2023/10/26 04:58:29;;;;;;;4.68;2.58;;;11.30;99.90;;;;;;5016808;28;20046;-63
2023/10/26 05:00:56;;;;;;;3.30;2.30;;;11.30;99.90;;;;;;5016915;28;20046;-63
2023/10/26 05:03:23;;;;;;;4.13;2.60;;;11.30;99.90;;;;;;5016577;28;20034;-63
2023/10/26 05:05:50;;;;;;;6.88;2.30;;;11.30;99.90;;;;;;5017081;28;20048;-63
2023/10/26 05:08:16;;;;;;;5.90;2.90;;;11.30;99.90;;;;;;5016322;28;20042;-63
2023/10/26 05:10:43;;;;;;;4.07;2.20;;;11.40;99.90;;;;;;5016536;28;20049;-63
2023/10/26 05:13:10;;;;;;;3.67;2.30;;;11.40;99.90;;;;;;5016383;28;20049;-62
2023/10/26 05:15:37;;;;;;;5.70;2.20;;;11.40;99.90;;;;;;5016570;28;20076;-63
2023/10/26 05:18:04;;;;;;;2.97;1.73;;;11.40;99.90;;;;;;5016170;28;20042;-62
2023/10/26 05:20:32;;;;;;;3.30;1.92;;;11.40;99.90;;;;;;5016414;28;20538;-62
2023/10/26 05:22:59;;;;;;;3.55;2.00;;;11.40;99.90;;;;;;5016077;28;20533;-62
2023/10/26 05:25:26;;;;;;;4.18;2.00;;;11.40;99.90;;;;;;5015138;28;20053;-52
2023/10/26 05:27:53;;;;;;;2.60;1.80;;;11.40;99.90;;;;;;5016518;28;20068;-54
2023/10/26 05:30:20;;;;;;;3.60;2.50;;;11.40;99.90;;;;;;5016485;28;20046;-51
2023/10/26 05:32:47;;;;;;;5.30;2.25;;;11.40;99.90;;;;;;5016582;28;20038;-54
2023/10/26 05:35:14;;;;;;;5.03;2.85;;;11.40;99.90;;;;;;4999213;28;20050;-53
2023/10/26 05:37:40;;;;;;;3.85;2.83;;;11.40;99.90;;;;;;5016130;28;20053;-55
2023/10/26 05:40:08;;;;;;;3.90;2.58;;;11.40;99.90;;;;;;5016229;28;20496;-55
2023/10/26 05:42:35;;;;;;;4.03;2.83;;;11.40;99.90;;;;;;4998757;28;20505;-53
2023/10/26 05:45:02;;;;;;;3.78;2.58;;;11.40;99.90;;;;;;5016358;28;20459;-51
2023/10/26 05:47:29;;;;;;;6.10;2.97;;;11.40;99.90;;;;;;5030885;28;20034;-55
2023/10/26 05:49:56;;;;;;;4.75;3.20;;;11.40;99.90;;;;;;5016329;28;20390;-52
2023/10/26 05:52:23;;;;;;;3.67;2.95;;;11.40;99.90;;;;;;5016045;28;20438;-54
2023/10/26 05:54:50;;;;;;;4.70;2.90;;;11.40;99.90;;;;;;5015737;28;20042;-53
2023/10/26 05:57:16;;;;;;;4.85;2.70;;;11.40;99.90;;;;;;5015567;28;20046;-52
2023/10/26 05:59:43;;;;;;;3.70;2.60;;;11.40;99.90;;;;;;5015535;28;20041;-53
2023/10/26 06:02:10;;;;;;;4.05;2.85;;;11.40;99.90;;;;;;5015704;28;20042;-53
2023/10/26 06:04:37;;;;;;;2.88;2.20;;;11.40;99.90;;;;;;5015226;28;20124;-55
2023/10/26 06:07:04;;;;;;;4.30;2.38;;;11.50;99.90;;;;;;5015913;28;20052;-54
2023/10/26 06:09:30;;;;;;;3.50;2.30;;;11.50;99.90;;;;;;5015743;28;20524;-53
2023/10/26 06:11:57;;;;;;;4.53;2.28;;;11.50;99.90;;;;;;5015922;28;20041;-53
2023/10/26 06:14:24;;;;;;;2.65;1.85;;;11.50;99.90;;;;;;5015327;28;20044;-54
2023/10/26 06:16:51;;;;;;;3.78;1.65;;;11.50;99.90;;;;;;5015103;28;20038;-53
2023/10/26 06:19:18;;;;;;;3.22;1.67;;;11.50;99.90;;;;;;5015259;28;20482;-53
2023/10/26 06:21:44;;;;;;;3.83;1.52;;;11.50;99.90;;;;;;5015618;28;20467;-50
2023/10/26 06:24:11;;;;;;;3.70;1.17;;;11.50;99.90;;;;;;5015352;28;20464;-53
2023/10/26 06:26:38;;;;;;;2.85;1.17;;;11.50;99.90;;;;;;5015189;28;20390;-55
2023/10/26 06:29:05;;;;;;;2.75;1.25;;;11.50;99.90;;;;;;5015216;28;20116;-54
2023/10/26 06:31:32;;;;;;;4.00;1.17;;;11.50;99.90;;;;;;5013827;28;20041;-52
2023/10/26 06:33:59;;;;;;;3.47;1.13;;;11.50;99.90;;;;;;5015103;28;20042;-52
2023/10/26 06:36:25;;;;;;;3.10;1.08;;;11.50;99.90;;;;;;5014802;28;20060;-54
2023/10/26 06:38:54;;;;;;;2.30;1.10;;;11.50;99.90;;;;;;5014665;28;20485;-54
2023/10/26 06:41:21;;;;;;;4.20;1.40;;;11.50;99.90;;;;;;5015180;28;20046;-55
2023/10/26 06:43:48;;;;;;;3.55;0.80;;;11.50;99.90;;;;;;5014442;28;20041;-54
2023/10/26 06:46:15;;;;;;;3.85;1.10;;;11.50;99.90;;;;;;5014503;28;20121;-54
2023/10/26 06:48:42;;;;;;;2.88;1.00;;;11.50;99.90;;;;;;5014557;28;20041;-54
2023/10/26 06:51:09;;;;;;;1.90;0.90;;;11.50;99.90;;;;;;5014678;28;20048;-55
2023/10/26 06:53:36;;;;;;;3.53;1.38;;;11.50;99.90;;;;;;4996456;28;20038;-55
2023/10/26 06:56:03;;;;;;;4.57;0.95;;;11.50;99.90;;;;;;4995792;28;20448;-53
2023/10/26 06:58:30;;;;;;;3.90;1.20;;;11.50;99.90;;;;;;5014428;28;20054;-53
2023/10/26 07:00:56;;;;;;;5.20;1.30;;;11.50;99.90;;;;;;5014076;28;20049;-52
2023/10/26 07:03:24;;;;;;;4.45;1.20;;;11.50;99.90;;;;;;5014469;28;20046;-53
2023/10/26 07:05:52;;;;;;;5.05;1.27;;;11.50;99.90;;;;;;5014195;28;20049;-54
2023/10/26 07:08:19;;;;;;;3.05;1.25;;;11.50;99.90;;;;;;5013747;28;20093;-53
2023/10/26 07:10:46;;;;;;;2.95;1.10;;;11.50;99.90;;;;;;5013501;28;20046;-55
2023/10/26 07:13:13;;;;;;;6.88;1.10;;;11.50;99.90;;;;;;5012516;28;20042;-63
2023/10/26 07:15:39;;;;;;;3.13;1.00;;;11.60;99.90;;;;;;5012622;28;20041;-63
2023/10/26 07:18:06;;;;;;;4.13;1.27;;;11.60;99.90;;;;;;5012565;28;20053;-62
2023/10/26 07:20:34;;;;;;;4.18;1.20;;;11.60;99.90;;;;;;5012573;28;20038;-62
2023/10/26 07:23:01;;;;;;;3.47;1.23;;;11.60;99.90;;;;;;5012178;28;20288;-63
2023/10/26 07:25:28;;;;;;;2.85;1.10;;;11.60;99.90;;;;;;5010932;28;20132;-62
2023/10/26 07:27:54;;;;;;;5.47;1.02;;;11.60;99.90;;;;;;5014047;28;20071;-62
2023/10/26 07:30:21;;;;;;;3.15;1.15;;;11.60;99.90;;;;;;5013974;28;20129;-62
2023/10/26 07:32:48;;;;;;;2.47;1.00;;;11.60;99.90;;;;;;5013851;28;20092;-62
2023/10/26 07:35:15;;;;;;;3.05;1.00;;;11.60;99.90;;;;;;5013463;28;20129;-63
2023/10/26 07:37:42;;;;;;;2.40;0.80;;;11.60;99.90;;;;;;5013609;28;20428;-62
2023/10/26 07:40:20;;;;;;;3.15;1.10;;;11.50;99.90;;;;;;4995699;28;20057;-63
2023/10/26 07:42:55;;;;;;;3.05;0.98;;;11.50;99.90;;;;;;5013583;28;20046;-63
2023/10/26 07:45:24;;;;;;;4.90;1.17;;;11.60;99.90;;;;;;5013190;28;20057;-62
2023/10/26 07:47:51;;;;;;;3.97;1.20;;;11.60;99.90;;;;;;5013507;28;20046;-63
2023/10/26 07:50:20;;;;;;;3.30;1.20;;;11.60;99.90;;;;;;5012894;28;20057;-63
2023/10/26 07:52:47;;;;;;;3.63;1.13;;;11.70;99.90;;;;;;5013829;28;20034;-63
2023/10/26 07:55:14;;;;;;;3.70;1.08;;;11.70;99.90;;;;;;5013224;28;20402;-63
2023/10/26 07:57:41;;;;;;;4.07;1.20;;;11.80;99.90;;;;;;5013518;28;20053;-63
2023/10/26 08:00:09;;;;;;;2.35;1.00;;;11.80;99.90;;;;;;5013598;28;20060;-63
2023/10/26 08:02:39;;;;;;;1.95;1.20;;;11.80;99.90;;;;;;5013785;28;20081;-63
2023/10/26 08:05:07;;;;;;;2.17;1.30;;;11.90;99.90;;;;;;5013689;28;20475;-63
2023/10/26 08:07:34;;;;;;;2.97;1.52;;;12.00;99.90;;;;;;5013610;28;20490;-63
2023/10/26 08:10:01;;;;;;;3.67;1.33;;;11.90;99.90;;;;;;5013647;28;20049;-63
2023/10/26 08:12:28;;;;;;;3.75;1.13;;;11.90;99.90;;;;;;5013045;28;20072;-63
2023/10/26 08:14:57;;;;;;;2.65;1.17;;;11.80;99.90;;;;;;5012694;28;20046;-61
2023/10/26 08:17:43;;;;;;;3.42;1.35;;;11.80;99.90;;;;;;4995333;28;20042;-51
2023/10/26 08:20:11;;;;;;;5.97;1.20;;;11.80;99.90;;;;;;5013053;28;20041;-53
2023/10/26 08:22:37;;;;;;;5.03;1.27;;;11.70;99.90;;;;;;5013410;28;20054;-55
2023/10/26 08:25:04;;;;;;;3.53;1.50;;;11.80;99.90;;;;;;5013097;28;20045;-53
2023/10/26 08:27:31;;;;;;;4.28;1.50;;;11.80;99.90;;;;;;4995419;28;20046;-56
2023/10/26 08:29:58;;;;;;;4.78;1.48;;;12.00;99.90;;;;;;5012961;28;20048;-54
2023/10/26 08:32:25;;;;;;;3.50;1.30;;;12.00;99.90;;;;;;4995835;28;20161;-54
2023/10/26 08:34:52;;;;;;;3.65;1.40;;;12.10;99.90;;;;;;5012685;28;20415;-55
2023/10/26 08:37:18;;;;;;;4.30;1.55;;;12.20;99.90;;;;;;5012969;28;20056;-54
2023/10/26 08:39:45;;;;;;;6.82;1.58;;;12.30;99.90;;;;;;5013265;28;20054;-55
2023/10/26 08:42:12;;;;;;;3.22;1.42;;;12.30;99.90;;;;;;5012720;28;20042;-51
2023/10/26 08:44:42;;;;;;;4.63;1.00;;;12.30;99.90;;;;;;5027877;28;20069;-55
2023/10/26 08:47:10;;;;;;;4.20;1.30;;;12.30;99.90;;;;;;5012962;28;20065;-54
2023/10/26 08:49:36;;;;;;;3.95;1.38;;;12.30;99.90;;;;;;5013420;28;20120;-54
2023/10/26 08:52:04;;;;;;;4.00;1.40;;;12.30;99.90;;;;;;5013020;28;20034;-53
2023/10/26 08:54:30;;;;;;;3.38;1.45;;;12.30;99.90;;;;;;5012955;28;20092;-53
2023/10/26 08:56:57;;;;;;;3.92;1.88;;;12.40;99.90;;;;;;5013141;28;20041;-54
2023/10/26 08:59:24;;;;;;;2.65;1.85;;;12.40;99.90;;;;;;5012823;28;20046;-53
2023/10/26 09:01:52;;;;;;;4.32;1.20;;;12.50;99.90;;;;;;5016524;28;20356;-54
2023/10/26 09:04:19;;;;;;;4.68;1.40;;;12.50;99.90;;;;;;5031642;28;20042;-55
2023/10/26 09:06:46;;;;;;;7.35;1.40;;;12.60;99.90;;;;;;5031686;28;20046;-53
2023/10/26 09:09:12;;;;;;;4.20;1.40;;;12.60;99.90;;;;;;5016214;28;20046;-55
2023/10/26 09:11:39;;;;;;;7.07;1.30;;;12.70;99.90;;;;;;5016372;28;20528;-56
2023/10/26 09:14:06;;;;;;;3.95;1.33;;;12.70;99.90;;;;;;5016191;28;20077;-54
2023/10/26 09:16:33;;;;;;;4.18;1.23;;;12.70;99.90;;;;;;5016243;28;20504;-53
2023/10/26 09:19:00;;;;;;;5.32;1.77;;;12.70;99.90;;;;;;4998600;28;20132;-55
2023/10/26 09:21:26;;;;;;;3.38;1.23;;;12.80;99.90;;;;;;5016175;28;20046;-55
2023/10/26 09:23:53;;;;;;;5.57;1.30;;;12.80;99.90;;;;;;5015905;28;20046;-56
2023/10/26 09:26:21;;;;;;;5.53;1.25;;;12.80;99.90;;;;;;5016625;28;20088;-53
2023/10/26 09:28:47;;;;;;;3.80;1.10;;;12.90;99.90;;;;;;5015898;28;20483;-54
2023/10/26 09:31:14;;;;;;;4.70;1.50;;;12.90;99.90;;;;;;5016263;28;20471;-53
2023/10/26 09:33:41;;;;;;;6.18;1.48;;;12.90;99.90;;;;;;5016523;28;20033;-54
2023/10/26 09:36:08;;;;;;;7.18;1.70;;;12.90;99.90;;;;;;5015552;28;20080;-56
2023/10/26 09:38:35;;;;;;;4.80;1.17;;;13.00;99.90;;;;;;5016274;28;20042;-55
2023/10/26 09:41:02;;;;;;;5.28;1.35;;;13.00;99.90;;;;;;5016277;28;20038;-53
2023/10/26 09:43:29;;;;;;;5.53;1.13;;;13.10;99.90;;;;;;5015679;28;20120;-55
2023/10/26 09:45:56;;;;;;;3.03;0.82;;;13.10;99.90;;;;;;5016091;28;20041;-54
2023/10/26 09:48:23;;;;;;;2.80;0.85;;;13.10;99.90;;;;;;5015364;28;20440;-55
2023/10/26 09:50:50;;;;;;;4.72;1.00;;;13.10;99.90;;;;;;5016114;28;20046;-63
2023/10/26 09:53:18;;;;;;;3.17;0.95;;;13.20;99.90;;;;;;5015396;28;20499;-63
2023/10/26 09:55:45;;;;;;;2.85;0.75;;;13.10;99.90;;;;;;5015272;28;20050;-63
2023/10/26 09:58:12;;;;;;;3.50;0.90;;;13.20;99.90;;;;;;5015359;28;20388;-63
2023/10/26 10:00:39;;;;;;;4.18;0.93;;;13.30;99.90;;;;;;5015473;28;20378;-63
2023/10/26 10:03:06;;;;;;;3.20;0.98;;;13.30;99.90;;;;;;5015786;28;20065;-63
2023/10/26 10:05:32;;;;;;;4.65;0.75;;;13.30;99.90;;;;;;5015356;28;20166;-63
2023/10/26 10:07:59;;;;;;;4.88;1.50;;;13.40;99.90;;;;;;5015115;28;20482;-63
2023/10/26 10:10:26;;;;;;;7.28;1.45;;;13.40;99.90;;;;;;5015685;28;20052;-63
2023/10/26 10:12:53;;;;;;;5.55;1.33;;;13.30;99.90;;;;;;5014912;28;20042;-63
2023/10/26 10:15:19;;;;;;;7.72;2.00;;;13.30;99.90;;;;;;5015396;28;20466;-63
2023/10/26 10:18:06;;;;;;;6.43;1.33;;;13.30;99.90;;;;;;5015294;28;20057;-63
2023/10/26 10:20:33;;;;;;;7.07;1.58;;;13.30;99.90;;;;;;5015191;28;20057;-63
2023/10/26 10:23:00;;;;;;;7.38;2.13;;;13.30;99.90;;;;;;5015239;28;20042;-63
2023/10/26 10:25:27;;;;;;;7.70;1.70;;;13.30;99.90;;;;;;5014808;28;20042;-63
2023/10/26 10:27:54;;;;;;;8.32;1.67;;;13.40;99.90;;;;;;5014630;28;20038;-63
2023/10/26 10:30:21;;;;;;;10.18;1.98;;;13.40;99.90;;;;;;5029863;28;20038;-63
2023/10/26 10:32:48;;;;;;;10.07;1.90;;;13.50;99.90;;;;;;5015181;28;20475;-63
2023/10/26 10:35:15;;;;;;;7.13;2.10;;;13.60;99.90;;;;;;5015035;28;20455;-63
2023/10/26 10:37:42;;;;;;;12.23;2.17;;;13.60;99.90;;;;;;5014833;28;20068;-63
2023/10/26 10:40:09;;;;;;;12.25;2.22;;;13.60;99.90;;;;;;5014802;28;20049;-63
2023/10/26 10:42:35;;;;;;;8.57;2.00;;;13.60;99.90;;;;;;5014952;28;20128;-63
2023/10/26 10:45:02;;;;;;;8.10;1.88;;;13.60;99.90;;;;;;5014751;28;20132;-63
2023/10/26 10:47:30;;;;;;;8.85;2.00;;;13.60;99.90;;;;;;4997255;28;20096;-63
2023/10/26 10:49:57;;;;;;;11.18;2.20;;;13.60;99.90;;;;;;5014517;28;20041;-63
2023/10/26 10:52:23;;;;;;;7.45;1.98;;;13.70;99.90;;;;;;5015137;28;20509;-63
2023/10/26 10:54:50;;;;;;;11.93;2.50;;;13.80;99.90;;;;;;5014221;28;20104;-63
2023/10/26 10:57:30;;;;;;;9.65;2.63;;;13.90;99.90;;;;;;5014416;28;20072;-63
2023/10/26 10:59:57;;;;;;;10.20;2.38;;;13.90;99.90;;;;;;5014109;28;20042;-64
2023/10/26 11:02:24;;;;;;;8.27;2.42;;;13.90;99.90;;;;;;5014647;28;20427;-63
2023/10/26 11:04:54;;;;;;;12.25;2.53;;;13.90;99.90;;;;;;5013993;28;20038;-63
2023/10/26 11:07:35;;;;;;;13.05;2.95;;;14.00;99.90;;;;;;5014536;28;20049;-63
2023/10/26 11:10:02;;;;;;;12.77;3.38;;;14.00;99.90;;;;;;5014705;28;20041;-63
2023/10/26 11:12:29;;;;;;;15.63;2.58;;;14.00;99.90;;;;;;4996631;28;20549;-63
2023/10/26 11:14:56;;;;;;;11.57;2.92;;;14.00;99.90;;;;;;5013999;28;20406;-63
2023/10/26 11:17:23;;;;;;;12.20;2.40;;;14.10;99.90;;;;;;5014168;28;20069;-63
2023/10/26 11:19:50;;;;;;;8.02;2.20;;;14.20;99.90;;;;;;5013937;28;20053;-63
2023/10/26 11:22:17;;;;;;;16.10;2.50;;;14.30;99.90;;;;;;4996786;28;20077;-63
2023/10/26 11:24:43;;;;;;;12.05;2.80;;;14.40;99.90;;;;;;5013138;28;20050;-63
2023/10/26 11:27:11;;;;;;;11.57;2.22;;;14.40;99.90;;;;;;4996779;28;20438;-63
2023/10/26 11:29:38;;;;;;;13.20;2.90;;;14.40;99.90;;;;;;5013919;28;20038;-63
2023/10/26 11:32:04;;;;;;;14.52;2.83;;;14.30;99.90;;;;;;5013824;28;20042;-63
2023/10/26 11:34:31;;;;;;;17.75;3.20;;;14.30;99.90;;;;;;5013905;28;20078;-63
2023/10/26 11:36:59;;;;;;;16.15;3.05;;;14.30;99.90;;;;;;5013521;28;20136;-63
2023/10/26 11:39:26;;;;;;;12.65;2.60;;;14.30;99.90;;;;;;4996564;28;20493;-63
2023/10/26 11:41:53;;;;;;;16.50;3.15;;;14.30;99.90;;;;;;5013954;28;20129;-63
2023/10/26 11:44:20;;;;;;;13.15;3.17;;;14.20;99.90;;;;;;5013631;28;20046;-63
2023/10/26 11:46:46;;;;;;;14.48;2.22;;;14.20;99.90;;;;;;4996242;28;20467;-63
2023/10/26 11:49:13;;;;;;;14.88;2.85;;;14.20;99.90;;;;;;5013819;28;20045;-63
2023/10/26 11:51:40;;;;;;;17.23;2.90;;;14.20;99.90;;;;;;4995718;28;20046;-63
2023/10/26 11:54:19;;;;;;;11.85;2.60;;;14.20;99.90;;;;;;5013379;28;20053;-62
2023/10/26 11:56:46;;;;;;;11.95;2.20;;;14.20;99.90;;;;;;5013560;28;20041;-63
2023/10/26 11:59:13;;;;;;;10.85;2.55;;;14.20;99.90;;;;;;5013750;28;20387;-63
2023/10/26 12:01:39;;;;;;;15.02;2.95;;;14.20;99.90;;;;;;5013510;28;20104;-63
2023/10/26 12:04:06;;;;;;;12.70;2.60;;;14.20;99.90;;;;;;5013669;28;20042;-62
2023/10/26 12:06:33;;;;;;;12.45;2.60;;;14.10;99.90;;;;;;5013649;28;20067;-63
2023/10/26 12:09:00;;;;;;;11.40;2.80;;;14.10;99.90;;;;;;5013842;28;20045;-63
2023/10/26 12:11:26;;;;;;;16.70;3.13;;;14.20;99.90;;;;;;5028904;28;20478;-63
2023/10/26 12:13:53;;;;;;;12.40;2.50;;;14.20;99.90;;;;;;5013639;28;20514;-63
2023/10/26 12:16:20;;;;;;;15.82;2.75;;;14.40;99.90;;;;;;5028300;28;20056;-63
2023/10/26 12:18:47;;;;;;;14.52;2.90;;;14.50;99.90;;;;;;5013264;28;20483;-63
2023/10/26 12:21:14;;;;;;;13.88;2.92;;;14.50;99.90;;;;;;4996095;28;20458;-63
2023/10/26 12:23:41;;;;;;;10.60;2.58;;;14.50;99.90;;;;;;5013589;28;20050;-63
2023/10/26 12:26:07;;;;;;;14.05;3.08;;;14.40;99.90;;;;;;5013195;28;20037;-63
2023/10/26 12:28:34;;;;;;;13.93;3.30;;;14.40;99.90;;;;;;5013489;28;20046;-63
2023/10/26 12:31:01;;;;;;;12.13;2.40;;;14.30;99.90;;;;;;5013669;28;20119;-63
2023/10/26 12:33:28;;;;;;;12.30;2.55;;;14.30;99.90;;;;;;5013695;28;20129;-63
2023/10/26 12:35:55;;;;;;;15.43;2.80;;;14.30;99.90;;;;;;5015220;28;20141;-63
2023/10/26 12:38:23;;;;;;;15.55;2.92;;;14.20;99.90;;;;;;5017121;28;20041;-63
2023/10/26 12:40:50;;;;;;;16.13;2.90;;;14.20;99.90;;;;;;5017206;28;20046;-63